Time;durP1;ratioP1;P1;durP2;ratioP2;P2;SDS_P1;SDS_P2;PMS_P1;PMS_P2;Temp;Humidity;BMP_temperature;BMP_pressure;BME280_temperature;BME280_humidity;BME280_pressure;Samples;Min_cycle;Max_cycle;Signal;HPM_P1;HPM_P2
2021/10/12 00:01:05;;;;;;;27.02;13.63;;;;;;;27.25;20.40;98253.00;5082648;28;20054;-79
2021/10/12 00:03:32;;;;;;;22.15;10.80;;;;;;;26.34;21.61;98255.75;5083622;28;20037;-79
2021/10/12 00:05:59;;;;;;;24.63;12.70;;;;;;;26.00;22.22;98253.44;5085034;28;20035;-79
2021/10/12 00:08:25;;;;;;;31.67;16.35;;;;;;;26.21;22.00;98252.13;5085730;28;20082;-79
2021/10/12 00:10:51;;;;;;;28.65;15.07;;;;;;;25.83;22.86;98260.34;5089575;28;20398;-79
2021/10/12 00:13:17;;;;;;;44.30;22.40;;;;;;;25.21;23.54;98251.00;5093528;28;20032;-79
2021/10/12 00:15:44;;;;;;;33.95;16.83;;;;;;;25.27;23.51;98249.25;5092041;28;20509;-79
2021/10/12 00:18:10;;;;;;;27.27;15.10;;;;;;;25.51;23.43;98244.25;5088616;28;20549;-79
2021/10/12 00:20:36;;;;;;;28.25;15.50;;;;;;;25.98;22.66;98247.47;5090588;28;20506;-79
2021/10/12 00:23:06;;;;;;;25.48;13.77;;;;;;;26.46;21.94;98247.34;5088554;28;20073;-79
2021/10/12 00:25:32;;;;;;;28.20;15.30;;;;;;;27.12;21.23;98243.75;5085679;28;20118;-79
2021/10/12 00:27:58;;;;;;;27.20;14.55;;;;;;;27.29;21.00;98239.56;5089243;28;20067;-79
2021/10/12 00:30:24;;;;;;;32.63;17.02;;;;;;;26.80;21.37;98243.94;5090216;28;20040;-79
2021/10/12 00:32:50;;;;;;;34.28;18.20;;;;;;;26.77;22.01;98242.03;5089878;28;20039;-79
2021/10/12 00:35:16;;;;;;;31.58;16.35;;;;;;;26.25;22.32;98235.91;5083242;28;20028;-79
2021/10/12 00:37:42;;;;;;;30.67;17.45;;;;;;;25.58;23.57;98237.69;5091480;28;20101;-79
2021/10/12 00:40:09;;;;;;;33.80;18.42;;;;;;;25.18;24.16;98239.84;5088643;28;20051;-79
2021/10/12 00:42:36;;;;;;;29.70;17.23;;;;;;;24.70;24.62;98244.13;5081049;28;20031;-79
2021/10/12 00:45:05;;;;;;;35.80;17.95;;;;;;;25.00;24.60;98239.47;5080947;28;20028;-79
2021/10/12 00:47:31;;;;;;;30.13;15.00;;;;;;;25.12;24.59;98235.97;5091979;28;20074;-79
2021/10/12 00:49:57;;;;;;;35.22;18.00;;;;;;;25.75;23.94;98233.63;5085193;28;20036;-79
2021/10/12 00:52:23;;;;;;;30.63;17.83;;;;;;;25.24;24.20;98226.84;5083718;28;20040;-79
2021/10/12 00:54:49;;;;;;;28.13;14.55;;;;;;;26.09;23.18;98223.41;5081065;28;20051;-79
2021/10/12 00:57:15;;;;;;;32.47;16.58;;;;;;;26.23;23.37;98227.13;5079912;28;20406;-79
2021/10/12 00:59:41;;;;;;;33.33;17.42;;;;;;;25.63;23.44;98228.69;5087154;28;20047;-79
2021/10/12 01:02:09;;;;;;;33.13;17.50;;;;;;;25.20;24.33;98220.53;5082310;28;20432;-79
2021/10/12 01:04:35;;;;;;;30.92;17.42;;;;;;;25.50;24.54;98227.84;5081274;28;20040;-79
2021/10/12 01:07:01;;;;;;;37.45;20.20;;;;;;;24.54;25.51;98218.00;5077382;28;20028;-79
2021/10/12 01:09:27;;;;;;;28.25;16.10;;;;;;;24.73;25.69;98212.38;5073607;28;20046;-78
2021/10/12 01:11:53;;;;;;;39.97;21.92;;;;;;;24.42;26.29;98204.63;5077143;28;20128;-79
2021/10/12 01:14:19;;;;;;;31.05;16.85;;;;;;;24.84;25.86;98202.91;5081410;28;20063;-78
2021/10/12 01:16:45;;;;;;;31.75;17.05;;;;;;;24.95;25.50;98201.44;5076654;28;20042;-79
2021/10/12 01:19:16;;;;;;;28.27;15.73;;;;;;;25.09;25.26;98203.91;5080663;28;20028;-79
2021/10/12 01:21:47;;;;;;;34.53;18.92;;;;;;;24.90;25.83;98201.97;5077550;28;20075;-79
2021/10/12 01:24:15;;;;;;;31.05;16.02;;;;;;;25.19;25.46;98197.25;5077798;28;20033;-79
2021/10/12 01:26:42;;;;;;;29.17;16.20;;;;;;;25.64;24.99;98204.97;5072854;28;20545;-79
2021/10/12 01:29:10;;;;;;;25.83;14.25;;;;;;;25.43;25.20;98200.69;5075420;28;20071;-79
2021/10/12 01:31:36;;;;;;;22.00;13.27;;;;;;;25.40;24.99;98198.75;5079802;28;20107;-78
2021/10/12 01:34:11;;;;;;;22.15;12.75;;;;;;;25.47;25.10;98206.22;5077077;28;20115;-79
2021/10/12 01:36:37;;;;;;;28.65;15.63;;;;;;;25.21;25.38;98194.00;5081095;28;20038;-79
2021/10/12 01:39:03;;;;;;;28.50;17.35;;;;;;;25.14;25.93;98194.97;5075444;28;20063;-79
2021/10/12 01:41:29;;;;;;;30.58;15.95;;;;;;;25.18;25.57;98194.91;5079928;28;20039;-79
2021/10/12 01:43:57;;;;;;;26.63;15.50;;;;;;;25.66;25.28;98188.47;5087270;28;20039;-79
2021/10/12 01:46:23;;;;;;;19.58;11.98;;;;;;;26.01;24.36;98193.13;5081404;28;20020;-79
2021/10/12 01:48:49;;;;;;;26.10;15.05;;;;;;;25.56;25.50;98192.34;5083018;28;20496;-79
2021/10/12 01:51:15;;;;;;;30.52;16.00;;;;;;;25.31;25.15;98188.13;5080222;28;20070;-77
2021/10/12 01:53:42;;;;;;;31.98;16.80;;;;;;;25.24;25.75;98176.25;5083144;28;20096;-77
2021/10/12 01:56:08;;;;;;;29.15;14.73;;;;;;;24.75;26.49;98181.03;5088101;28;20036;-77
2021/10/12 01:58:35;;;;;;;28.35;15.38;;;;;;;24.77;26.42;98178.59;5082789;28;20039;-77
2021/10/12 02:01:01;;;;;;;27.70;16.15;;;;;;;24.49;26.67;98176.41;5088844;28;20028;-77
2021/10/12 02:03:27;;;;;;;28.42;16.80;;;;;;;25.10;26.17;98179.44;5077351;28;20036;-77
2021/10/12 02:05:53;;;;;;;26.77;14.95;;;;;;;25.78;25.24;98174.47;5080949;28;20130;-77
2021/10/12 02:08:19;;;;;;;26.00;15.38;;;;;;;26.04;24.69;98169.72;5080311;28;20043;-77
2021/10/12 02:10:45;;;;;;;25.70;14.02;;;;;;;25.60;25.42;98173.38;5076673;28;20371;-77
2021/10/12 02:13:11;;;;;;;26.48;15.57;;;;;;;26.14;24.64;98167.88;5084855;28;20442;-77
2021/10/12 02:15:37;;;;;;;29.50;16.60;;;;;;;25.79;25.28;98158.38;5076666;28;20033;-77
2021/10/12 02:18:04;;;;;;;24.73;13.25;;;;;;;26.12;24.62;98167.50;5084488;28;20103;-77
2021/10/12 02:20:30;;;;;;;23.75;14.25;;;;;;;26.33;24.28;98169.69;5087539;28;20505;-77
2021/10/12 02:22:56;;;;;;;28.33;15.45;;;;;;;26.47;24.17;98163.66;5081555;28;20028;-77
2021/10/12 02:25:22;;;;;;;22.00;12.77;;;;;;;26.16;24.49;98162.59;5086166;28;20039;-77
2021/10/12 02:27:48;;;;;;;23.30;13.15;;;;;;;25.76;25.29;98162.06;5089247;28;20032;-77
2021/10/12 02:30:14;;;;;;;23.25;13.88;;;;;;;26.23;24.75;98163.19;5087135;28;20024;-77
2021/10/12 02:32:40;;;;;;;23.15;12.75;;;;;;;26.23;24.43;98160.38;5080695;28;20367;-77
2021/10/12 02:35:07;;;;;;;23.90;12.25;;;;;;;26.14;24.60;98165.06;5080255;28;20062;-77
2021/10/12 02:37:33;;;;;;;23.98;12.55;;;;;;;25.81;25.10;98162.31;5085251;28;20032;-77
2021/10/12 02:39:59;;;;;;;26.83;14.18;;;;;;;25.95;25.00;98163.97;5083189;28;20044;-77
2021/10/12 02:42:25;;;;;;;25.67;14.95;;;;;;;25.37;25.71;98161.06;5074761;28;20056;-77
2021/10/12 02:44:51;;;;;;;22.90;13.52;;;;;;;25.31;26.04;98162.03;5076779;28;20060;-77
2021/10/12 02:47:17;;;;;;;21.45;12.32;;;;;;;25.55;25.60;98165.47;5088675;28;20078;-77
2021/10/12 02:49:45;;;;;;;32.78;19.00;;;;;;;25.15;26.06;98154.41;5082249;28;20048;-77
2021/10/12 02:52:11;;;;;;;28.38;15.75;;;;;;;24.74;26.56;98160.56;5089861;28;20070;-77
2021/10/12 02:54:37;;;;;;;22.45;13.70;;;;;;;24.86;26.26;98164.75;5091686;28;20123;-77
2021/10/12 02:57:03;;;;;;;21.52;11.45;;;;;;;25.41;25.80;98161.75;5080791;28;20040;-77
2021/10/12 02:59:29;;;;;;;23.73;14.60;;;;;;;25.21;26.16;98171.50;5089194;28;20039;-77
2021/10/12 03:01:55;;;;;;;25.70;13.55;;;;;;;25.23;25.96;98160.63;5084349;28;20031;-77
2021/10/12 03:04:21;;;;;;;24.30;13.77;;;;;;;25.28;25.95;98162.91;5089561;28;20034;-77
2021/10/12 03:06:47;;;;;;;23.05;13.63;;;;;;;25.68;25.35;98169.13;5089334;28;20980;-77
2021/10/12 03:09:13;;;;;;;26.17;14.00;;;;;;;26.07;24.86;98158.34;5079542;28;20098;-77
2021/10/12 03:11:39;;;;;;;21.05;12.43;;;;;;;25.89;24.88;98157.28;5092648;28;20036;-77
2021/10/12 03:14:05;;;;;;;22.35;12.27;;;;;;;25.97;24.94;98158.69;5084122;28;20029;-77
2021/10/12 03:16:31;;;;;;;22.13;12.05;;;;;;;25.52;25.39;98155.09;5083213;28;20040;-77
2021/10/12 03:18:58;;;;;;;22.50;14.20;;;;;;;25.55;25.10;98154.22;5088935;28;20038;-77
2021/10/12 03:21:25;;;;;;;25.00;14.32;;;;;;;25.01;26.26;98157.56;5091782;28;20064;-77
2021/10/12 03:23:51;;;;;;;20.55;12.32;;;;;;;25.06;26.04;98147.81;5091745;28;20039;-77
2021/10/12 03:26:17;;;;;;;18.08;10.88;;;;;;;25.52;25.52;98143.84;5076454;28;20039;-77
2021/10/12 03:28:43;;;;;;;23.25;13.43;;;;;;;24.80;26.10;98141.22;5089081;28;20396;-77
2021/10/12 03:31:09;;;;;;;21.15;12.23;;;;;;;25.54;25.47;98149.81;5087749;28;20029;-77
2021/10/12 03:33:35;;;;;;;19.65;11.85;;;;;;;25.21;25.49;98141.41;5088046;28;20036;-77
2021/10/12 03:36:12;;;;;;;20.58;11.68;;;;;;;25.61;25.44;98141.97;5090499;28;20077;-77
2021/10/12 03:38:38;;;;;;;17.70;11.32;;;;;;;25.69;24.94;98139.78;5087133;28;20040;-77
2021/10/12 03:41:05;;;;;;;17.73;10.98;;;;;;;24.89;26.16;98132.97;5090171;28;20533;-77
2021/10/12 03:43:31;;;;;;;19.42;10.20;;;;;;;24.59;26.05;98134.06;5091163;28;20043;-77
2021/10/12 03:45:57;;;;;;;13.88;9.18;;;;;;;25.09;25.78;98142.09;5088412;28;20504;-77
2021/10/12 03:48:23;;;;;;;15.65;8.82;;;;;;;25.85;24.88;98148.97;5086709;28;20405;-77
2021/10/12 03:50:49;;;;;;;13.80;9.52;;;;;;;26.04;24.65;98147.22;5091051;28;20056;-78
2021/10/12 03:53:15;;;;;;;17.83;10.52;;;;;;;25.92;24.59;98147.97;5084065;28;20037;-77
2021/10/12 03:55:41;;;;;;;15.23;8.50;;;;;;;26.35;23.89;98142.69;5086475;28;20374;-77
2021/10/12 03:58:07;;;;;;;13.13;8.32;;;;;;;27.18;22.88;98139.69;5086155;28;20032;-77
2021/10/12 04:00:34;;;;;;;13.00;8.90;;;;;;;26.69;23.41;98142.84;5090955;28;20035;-77
2021/10/12 04:03:00;;;;;;;13.32;8.25;;;;;;;26.69;23.40;98136.41;5091454;28;20027;-77
2021/10/12 04:05:26;;;;;;;12.00;7.90;;;;;;;26.77;23.16;98131.38;5084053;28;20120;-77
2021/10/12 04:07:52;;;;;;;13.77;8.50;;;;;;;26.27;23.88;98135.72;5085827;28;20062;-77
2021/10/12 04:10:19;;;;;;;12.68;7.82;;;;;;;26.25;23.89;98129.75;5084886;28;20490;-77
2021/10/12 04:12:45;;;;;;;13.35;7.90;;;;;;;26.53;23.38;98126.06;5084689;28;20111;-78
2021/10/12 04:15:11;;;;;;;11.38;8.13;;;;;;;26.54;23.16;98116.34;5076527;28;20506;-77
2021/10/12 04:17:37;;;;;;;11.73;7.80;;;;;;;26.77;23.01;98120.88;5080935;28;20041;-77
2021/10/12 04:20:04;;;;;;;11.18;7.65;;;;;;;26.57;23.09;98117.47;5087286;28;20042;-77
2021/10/12 04:22:30;;;;;;;11.43;7.18;;;;;;;26.05;23.87;98112.19;5084714;28;20036;-77
2021/10/12 04:24:56;;;;;;;12.35;6.90;;;;;;;26.24;23.47;98110.47;5078656;28;20026;-77
2021/10/12 04:27:23;;;;;;;11.57;7.15;;;;;;;26.80;22.56;98099.47;5088146;28;20041;-77
2021/10/12 04:29:49;;;;;;;14.15;8.40;;;;;;;27.15;22.10;98101.91;5085705;28;20032;-77
2021/10/12 04:32:15;;;;;;;12.25;7.93;;;;;;;27.15;21.92;98096.25;5085605;28;20508;-77
2021/10/12 04:34:41;;;;;;;11.23;7.65;;;;;;;26.99;22.28;98098.44;5086867;28;20024;-77
2021/10/12 04:37:07;;;;;;;13.60;7.82;;;;;;;26.80;22.50;98105.09;5083044;28;20108;-77
2021/10/12 04:39:33;;;;;;;12.63;8.02;;;;;;;26.88;22.55;98096.00;5085347;28;20029;-77
2021/10/12 04:42:01;;;;;;;12.30;7.95;;;;;;;26.46;23.03;98094.50;5082385;28;20508;-77
2021/10/12 04:44:28;;;;;;;9.13;7.15;;;;;;;26.62;22.91;98092.38;5074385;28;20025;-77
2021/10/12 04:46:55;;;;;;;10.82;7.47;;;;;;;26.76;22.88;98093.97;5073819;28;20036;-77
2021/10/12 04:49:21;;;;;;;10.40;6.70;;;;;;;26.86;22.50;98087.22;5079413;28;20043;-78
2021/10/12 04:51:47;;;;;;;12.82;8.30;;;;;;;27.11;22.53;98081.50;5079111;28;20519;-77
2021/10/12 04:54:13;;;;;;;12.52;7.45;;;;;;;27.02;22.29;98086.25;5081884;28;20051;-77
2021/10/12 04:56:39;;;;;;;10.27;7.00;;;;;;;26.96;22.50;98085.25;5083255;28;20032;-77
2021/10/12 04:59:05;;;;;;;11.48;7.22;;;;;;;27.06;22.46;98078.47;5083912;28;20039;-77
2021/10/12 05:01:31;;;;;;;10.73;6.88;;;;;;;27.00;22.60;98081.06;5084643;28;20039;-79
2021/10/12 05:03:57;;;;;;;9.95;7.40;;;;;;;27.12;22.30;98079.50;5087443;28;20093;-79
2021/10/12 05:06:24;;;;;;;13.20;8.30;;;;;;;27.19;22.31;98073.59;5089023;28;20044;-79
2021/10/12 05:08:50;;;;;;;11.75;7.75;;;;;;;27.22;22.14;98070.66;5082315;28;20035;-80
2021/10/12 05:11:16;;;;;;;10.63;5.95;;;;;;;27.22;22.24;98075.50;5088862;28;20040;-80
2021/10/12 05:13:42;;;;;;;11.05;6.88;;;;;;;27.37;22.05;98071.78;5083145;28;20083;-80
2021/10/12 05:16:13;;;;;;;8.68;5.80;;;;;;;27.66;21.65;98074.34;5079267;28;20028;-80
2021/10/12 05:18:42;;;;;;;9.55;5.85;;;;;;;27.99;21.19;98067.09;5088851;28;20412;-79
2021/10/12 05:21:08;;;;;;;11.40;6.88;;;;;;;27.85;21.27;98070.41;5087143;28;20050;-79
2021/10/12 05:23:34;;;;;;;8.68;6.40;;;;;;;27.85;21.56;98078.88;5087366;28;20040;-81
2021/10/12 05:26:01;;;;;;;10.15;6.95;;;;;;;27.85;21.46;98076.06;5080520;28;20048;-81
2021/10/12 05:28:28;;;;;;;10.15;6.43;;;;;;;27.90;21.55;98077.50;5072534;28;20028;-81
2021/10/12 05:30:54;;;;;;;9.48;6.45;;;;;;;27.83;21.47;98074.94;5073948;28;20485;-81
2021/10/12 05:33:20;;;;;;;12.07;7.43;;;;;;;27.79;21.75;98072.25;5073322;28;20039;-81
2021/10/12 05:35:48;;;;;;;13.32;7.70;;;;;;;27.77;21.76;98066.25;5073540;28;20107;-81
2021/10/12 05:38:18;;;;;;;11.05;6.88;;;;;;;27.49;21.90;98072.97;5073620;28;20040;-81
2021/10/12 05:40:44;;;;;;;10.85;6.85;;;;;;;27.50;21.98;98066.06;5074470;28;20122;-81
2021/10/12 05:43:10;;;;;;;12.05;7.00;;;;;;;27.80;21.68;98059.72;5073436;28;20036;-81
2021/10/12 05:45:37;;;;;;;7.93;5.47;;;;;;;28.08;21.47;98055.84;5073704;28;20028;-81
2021/10/12 05:48:07;;;;;;;12.98;6.80;;;;;;;27.95;21.53;98065.63;5073956;28;20075;-81
2021/10/12 05:50:33;;;;;;;13.75;8.43;;;;;;;28.18;21.19;98061.53;5091075;28;20398;-82
2021/10/12 05:53:14;;;;;;;13.38;8.40;;;;;;;28.28;21.27;98069.59;5093507;28;20177;-81
2021/10/12 05:58:46;;;;;;;11.50;7.32;;;;;;;28.34;21.17;98076.22;5093851;28;20047;-81
2021/10/12 06:01:12;;;;;;;10.20;6.57;;;;;;;28.35;21.21;98071.34;5093478;28;20039;-81
2021/10/12 06:03:39;;;;;;;10.77;6.43;;;;;;;28.21;21.45;98080.38;5083467;28;20032;-81
2021/10/12 06:06:05;;;;;;;10.52;7.22;;;;;;;28.25;21.47;98069.72;5073085;28;20486;-81
2021/10/12 06:08:33;;;;;;;8.57;6.28;;;;;;;28.34;21.46;98064.13;5072849;28;20036;-81
2021/10/12 06:11:01;;;;;;;11.20;7.43;;;;;;;28.56;21.32;98074.13;5071876;28;20086;-81
2021/10/12 06:13:28;;;;;;;11.50;6.97;;;;;;;28.70;21.01;98059.47;5082593;28;20059;-81
2021/10/12 06:15:54;;;;;;;12.65;7.13;;;;;;;28.89;20.90;98057.47;5093363;28;20067;-81
2021/10/12 06:18:21;;;;;;;13.27;8.13;;;;;;;28.87;21.00;98059.94;5083503;28;20112;-81
2021/10/12 06:20:48;;;;;;;10.32;7.20;;;;;;;28.75;20.85;98064.47;5072783;28;20115;-81
2021/10/12 06:23:15;;;;;;;12.27;8.23;;;;;;;28.20;21.58;98064.69;5072704;28;20486;-81
2021/10/12 06:25:41;;;;;;;10.40;7.28;;;;;;;27.69;22.08;98062.16;5071765;28;20036;-81
2021/10/12 06:28:07;;;;;;;12.13;7.35;;;;;;;27.56;22.68;98063.47;5072823;28;20060;-81
2021/10/12 06:30:34;;;;;;;9.63;6.63;;;;;;;27.49;22.70;98066.53;5080977;28;20172;-81
2021/10/12 06:33:01;;;;;;;10.95;6.90;;;;;;;27.45;22.60;98065.84;5093365;28;20089;-81
2021/10/12 06:35:31;;;;;;;12.90;6.80;;;;;;;27.04;23.09;98066.88;5083458;28;20486;-81
2021/10/12 06:38:01;;;;;;;9.68;6.20;;;;;;;27.22;22.95;98065.00;5082075;28;20040;-81
2021/10/12 06:40:28;;;;;;;10.97;7.10;;;;;;;27.72;22.41;98072.53;5076697;28;20028;-81
2021/10/12 06:42:54;;;;;;;12.73;6.40;;;;;;;27.99;22.00;98066.28;5095162;28;20024;-81
2021/10/12 06:45:22;;;;;;;11.35;6.32;;;;;;;27.83;22.49;98060.81;5099373;28;20478;-81
2021/10/12 06:47:48;;;;;;;11.38;5.32;;;;;;;28.15;22.16;98057.59;5117333;28;20029;-81
2021/10/12 06:50:16;;;;;;;10.48;6.10;;;;;;;28.35;22.03;98055.19;5097414;28;20051;-81
2021/10/12 06:52:42;;;;;;;10.52;5.78;;;;;;;28.41;21.72;98061.00;5091319;28;20375;-81
2021/10/12 06:55:10;;;;;;;7.65;5.30;;;;;;;28.24;21.91;98060.47;5089791;28;20078;-81
2021/10/12 06:57:36;;;;;;;7.40;5.28;;;;;;;27.84;22.47;98068.81;5076514;28;20056;-81
2021/10/12 07:00:08;;;;;;;11.32;6.65;;;;;;;27.62;22.54;98068.03;5076563;28;20028;-81
2021/10/12 07:02:35;;;;;;;7.28;5.20;;;;;;;28.10;22.32;98065.91;5076410;28;20036;-81
2021/10/12 07:05:01;;;;;;;10.00;6.22;;;;;;;27.95;22.07;98069.22;5076355;28;20100;-81
2021/10/12 07:07:27;;;;;;;11.73;5.50;;;;;;;28.08;22.03;98065.56;5076090;28;20047;-81
2021/10/12 07:09:53;;;;;;;10.10;6.28;;;;;;;28.12;22.00;98080.34;5076171;28;20433;-81
2021/10/12 07:12:19;;;;;;;11.98;6.95;;;;;;;27.69;22.37;98078.28;5083431;28;20043;-81
2021/10/12 07:14:45;;;;;;;10.45;6.15;;;;;;;27.41;22.68;98074.44;5096492;28;20024;-81
2021/10/12 07:17:11;;;;;;;16.73;7.90;;;;;;;27.43;22.92;98080.41;5096407;28;20089;-81
2021/10/12 07:19:37;;;;;;;11.02;5.32;;;;;;;27.52;22.91;98069.22;5095037;28;20044;-81
2021/10/12 07:22:03;;;;;;;10.05;5.90;;;;;;;27.56;22.99;98080.38;5095918;28;20081;-81
2021/10/12 07:24:30;;;;;;;10.38;5.63;;;;;;;27.79;22.83;98077.91;5096217;28;20039;-81
2021/10/12 07:26:56;;;;;;;9.52;4.80;;;;;;;28.32;22.25;98083.56;5096360;28;20028;-79
2021/10/12 07:29:22;;;;;;;9.35;5.53;;;;;;;28.71;21.97;98071.53;5080196;28;20035;-79
2021/10/12 07:31:48;;;;;;;11.05;5.72;;;;;;;28.28;22.08;98080.91;5076057;28;20086;-79
2021/10/12 07:34:14;;;;;;;7.40;5.13;;;;;;;28.38;22.45;98074.03;5075816;28;20074;-79
2021/10/12 07:36:41;;;;;;;8.50;4.72;;;;;;;28.75;21.82;98072.19;5075612;28;20035;-81
2021/10/12 07:39:08;;;;;;;9.32;4.95;;;;;;;29.07;21.40;98068.00;5075667;28;20032;-81
2021/10/12 07:41:35;;;;;;;8.02;4.35;;;;;;;29.05;21.33;98067.69;5075685;28;20116;-81
2021/10/12 07:44:01;;;;;;;10.65;6.75;;;;;;;29.13;21.39;98064.09;5075742;28;20032;-81
2021/10/12 07:46:28;;;;;;;7.85;5.25;;;;;;;29.23;21.27;98062.88;5085166;28;20027;-81
2021/10/12 07:48:58;;;;;;;13.95;6.25;;;;;;;29.50;21.10;98058.50;5096059;28;20078;-81
2021/10/12 07:51:24;;;;;;;12.27;6.78;;;;;;;29.32;21.03;98057.22;5094278;28;20444;-82
2021/10/12 07:53:51;;;;;;;10.32;4.72;;;;;;;29.36;21.03;98063.50;5095718;28;20442;-81
2021/10/12 07:56:27;;;;;;;10.00;6.28;;;;;;;29.15;21.19;98063.63;5095522;28;20028;-81
2021/10/12 07:58:54;;;;;;;13.48;7.60;;;;;;;28.54;21.64;98058.88;5095609;28;20246;-81
2021/10/12 08:01:20;;;;;;;9.00;5.72;;;;;;;27.42;23.45;98061.94;5095923;28;20039;-81
2021/10/12 08:03:46;;;;;;;9.00;5.88;;;;;;;26.99;24.18;98064.63;5093998;28;20455;-81
2021/10/12 08:06:13;;;;;;;7.97;5.32;;;;;;;27.10;23.89;98054.56;5093601;28;20117;-81
2021/10/12 08:08:39;;;;;;;9.57;5.90;;;;;;;26.47;24.77;98065.88;5095613;28;20036;-81
2021/10/12 08:11:05;;;;;;;7.53;5.50;;;;;;;25.72;25.66;98069.34;5092882;28;20499;-81
2021/10/12 08:13:34;;;;;;;8.02;4.93;;;;;;;25.73;25.97;98056.09;5093715;28;20032;-81
2021/10/12 08:16:08;;;;;;;6.35;4.95;;;;;;;26.23;25.46;98052.59;5095545;28;20036;-82
2021/10/12 08:18:34;;;;;;;10.52;6.25;;;;;;;26.17;25.29;98045.94;5094580;28;20441;-81
2021/10/12 08:21:01;;;;;;;14.95;6.82;;;;;;;26.18;25.32;98051.16;5093888;28;20036;-81
2021/10/12 08:23:27;;;;;;;11.73;7.10;;;;;;;26.70;24.61;98045.03;5095179;28;20097;-81
2021/10/12 08:25:53;;;;;;;12.10;7.55;;;;;;;26.57;25.23;98047.88;5094835;28;20032;-81
2021/10/12 08:28:19;;;;;;;12.60;7.10;;;;;;;26.52;25.06;98054.06;5079279;28;20111;-81
2021/10/12 08:30:45;;;;;;;10.57;5.63;;;;;;;26.88;24.44;98050.91;5074647;28;20068;-81
2021/10/12 08:33:11;;;;;;;10.60;6.68;;;;;;;25.67;25.99;98057.88;5074584;28;20107;-81
2021/10/12 08:35:37;;;;;;;14.65;7.15;;;;;;;26.38;24.79;98054.53;5074916;28;20037;-81
2021/10/12 08:38:03;;;;;;;13.20;6.90;;;;;;;26.02;25.64;98048.41;5075147;28;20465;-81
2021/10/12 08:40:31;;;;;;;12.07;7.47;;;;;;;25.68;26.16;98051.00;5074481;28;20482;-81
2021/10/12 08:42:58;;;;;;;10.77;6.65;;;;;;;25.52;26.13;98062.31;5074819;28;20031;-81
2021/10/12 08:45:24;;;;;;;12.88;7.47;;;;;;;26.20;25.21;98051.47;5073057;28;20033;-81
2021/10/12 08:47:51;;;;;;;12.13;6.55;;;;;;;26.74;24.46;98054.16;5074563;28;20414;-81
2021/10/12 08:50:24;;;;;;;7.05;4.88;;;;;;;27.14;24.12;98049.56;5089640;28;20036;-82
2021/10/12 08:52:50;;;;;;;8.38;5.50;;;;;;;26.21;25.27;98049.47;5073784;28;20147;-81
2021/10/12 08:55:17;;;;;;;9.40;6.25;;;;;;;26.55;24.79;98047.53;5089868;28;20543;-82
2021/10/12 08:57:45;;;;;;;10.45;6.75;;;;;;;26.54;24.61;98045.94;5094220;28;20024;-82
2021/10/12 09:00:13;;;;;;;11.02;7.53;;;;;;;25.35;26.19;98045.47;5094435;28;20020;-81
2021/10/12 09:05:50;;;;;;;11.57;6.85;;;;;;;25.60;25.89;98052.47;5074679;28;20127;-79
2021/10/12 09:08:26;;;;;;;12.35;5.68;;;;;;;26.67;25.15;98043.13;5072884;28;20123;-79
2021/10/12 09:10:52;;;;;;;7.35;4.88;;;;;;;27.42;24.03;98049.88;5075164;28;20496;-80
2021/10/12 09:13:19;;;;;;;10.98;6.88;;;;;;;27.07;24.22;98049.81;5090769;28;20110;-79
2021/10/12 09:16:05;;;;;;;8.23;5.93;;;;;;;26.92;24.35;98045.94;5093984;28;20028;-79
2021/10/12 09:18:54;;;;;;;9.63;5.35;;;;;;;27.47;23.93;98050.06;5093998;28;20062;-79
2021/10/12 09:21:31;;;;;;;9.75;6.13;;;;;;;26.29;24.48;98054.41;5099579;28;20036;-80
2021/10/12 09:24:35;;;;;;;9.73;6.25;;;;;;;26.45;24.34;98042.25;5114341;28;20373;-79
2021/10/12 09:27:05;;;;;;;9.52;7.20;;;;;;;25.95;24.83;98045.78;5041855;28;20048;-79
2021/10/12 09:29:37;;;;;;;10.18;7.22;;;;;;;25.55;25.47;98053.00;5074042;28;20047;-79
2021/10/12 09:32:06;;;;;;;12.30;7.53;;;;;;;25.97;24.99;98035.69;5071884;28;20024;-79
2021/10/12 09:34:34;;;;;;;12.63;7.63;;;;;;;25.97;25.25;98040.50;5073604;28;20052;-79
2021/10/12 09:37:01;;;;;;;8.85;6.55;;;;;;;26.02;25.27;98034.31;5074308;28;20032;-79
2021/10/12 09:39:38;;;;;;;9.52;5.82;;;;;;;26.74;24.54;98029.59;5073517;28;20110;-80
2021/10/12 09:42:06;;;;;;;14.35;8.27;;;;;;;26.45;24.29;98031.78;5073519;28;20057;-79
2021/10/12 09:44:33;;;;;;;10.27;6.43;;;;;;;26.67;24.10;98026.25;5081592;28;20099;-79
2021/10/12 09:47:14;;;;;;;8.60;5.95;;;;;;;27.00;24.54;98021.88;5093857;28;20439;-79
2021/10/12 09:49:44;;;;;;;10.88;6.00;;;;;;;27.60;23.52;98018.97;5085652;28;20028;-79
2021/10/12 09:52:15;;;;;;;13.00;5.40;;;;;;;27.21;23.46;98026.00;5072963;28;20050;-79
2021/10/12 09:54:48;;;;;;;8.98;5.25;;;;;;;27.05;23.45;98014.91;5073357;28;20485;-79
2021/10/12 09:57:15;;;;;;;10.52;6.22;;;;;;;26.56;24.06;98014.50;5091940;28;20036;-80
2021/10/12 09:59:41;;;;;;;9.70;6.72;;;;;;;26.01;24.41;98015.84;5093169;28;20059;-79
2021/10/12 10:02:14;;;;;;;7.53;4.93;;;;;;;26.41;24.50;98014.22;5078061;28;20029;-79
2021/10/12 10:04:42;;;;;;;10.95;6.55;;;;;;;26.09;24.93;98005.97;5073197;28;20078;-79
2021/10/12 10:07:14;;;;;;;9.77;6.13;;;;;;;26.02;24.50;98003.38;5073108;28;20390;-79
2021/10/12 10:09:43;;;;;;;10.73;6.50;;;;;;;25.20;25.53;97999.34;5073138;28;20039;-80
2021/10/12 10:12:10;;;;;;;10.18;6.82;;;;;;;25.15;25.66;97999.06;5073040;28;20021;-79
2021/10/12 10:14:39;;;;;;;8.30;5.25;;;;;;;26.34;23.96;97991.13;5072409;28;20032;-80
2021/10/12 10:17:07;;;;;;;7.85;5.63;;;;;;;26.04;24.25;97996.03;5072826;28;20497;-79
2021/10/12 10:19:40;;;;;;;7.45;4.43;;;;;;;26.40;24.45;97992.13;5090725;28;20082;-79
2021/10/12 10:22:06;;;;;;;8.45;5.28;;;;;;;24.98;26.03;97992.72;5091796;28;20044;-79
2021/10/12 10:24:41;;;;;;;8.50;5.57;;;;;;;25.74;25.05;97981.75;5086929;28;20028;-79
2021/10/12 10:27:27;;;;;;;8.15;5.57;;;;;;;26.68;23.31;97974.28;5073778;28;20162;-79
2021/10/12 10:30:19;;;;;;;8.10;4.30;;;;;;;27.17;23.24;97974.59;5072574;28;20067;-80
2021/10/12 10:32:50;;;;;;;7.07;4.10;;;;;;;27.67;22.42;97971.53;5072788;28;20036;-79
2021/10/12 10:35:42;;;;;;;7.32;3.70;;;;;;;27.84;22.02;97961.59;5073304;28;20490;-79
2021/10/12 10:38:20;;;;;;;;;;;;;;;27.11;22.68;97962.34;5073587;28;20085;-80
2021/10/12 10:40:51;;;;;;;6.50;3.53;;;;;;;27.31;22.46;97957.16;5072867;28;20009;-79
2021/10/12 10:43:17;;;;;;;7.95;3.60;;;;;;;27.29;22.82;97960.44;5073137;28;20056;-80
2021/10/12 10:45:47;;;;;;;6.45;3.58;;;;;;;27.66;22.38;97953.03;5072352;28;20482;-79
2021/10/12 10:48:16;;;;;;;4.33;3.20;;;;;;;28.04;21.55;97959.22;5074095;28;20024;-79
2021/10/12 10:50:42;;;;;;;7.93;4.63;;;;;;;27.57;21.63;97940.91;5078779;28;20043;-80
2021/10/12 10:53:10;;;;;;;6.20;4.00;;;;;;;27.26;22.44;97946.47;5073846;28;20060;-79
2021/10/12 10:55:39;;;;;;;6.85;3.83;;;;;;;27.45;22.51;97939.75;5080321;28;20031;-80
2021/10/12 10:58:11;;;;;;;5.13;3.60;;;;;;;27.65;22.36;97934.56;5092865;28;20507;-80
2021/10/12 11:00:44;;;;;;;6.22;3.38;;;;;;;27.99;21.80;97939.28;5092562;28;20032;-80
2021/10/12 11:03:36;;;;;;;7.97;4.00;;;;;;;27.42;22.04;97945.53;5092804;28;20040;-79
2021/10/12 11:06:16;;;;;;;5.97;2.70;;;;;;;27.80;22.11;97932.72;5092851;28;20084;-80
2021/10/12 11:08:57;;;;;;;9.27;4.68;;;;;;;26.84;22.88;97934.72;5090255;28;20439;-79
2021/10/12 11:11:23;;;;;;;4.43;3.00;;;;;;;26.90;22.89;97938.53;5073550;28;20355;-79
2021/10/12 11:13:50;;;;;;;6.75;3.83;;;;;;;27.02;22.63;97929.25;5072339;28;20047;-79
2021/10/12 11:16:17;;;;;;;5.20;2.97;;;;;;;26.99;22.88;97926.53;5072342;28;20029;-80
2021/10/12 11:18:46;;;;;;;4.72;3.20;;;;;;;27.28;22.23;97913.75;5072937;28;20397;-80
2021/10/12 11:21:16;;;;;;;4.07;3.35;;;;;;;26.81;22.84;97923.56;5080852;28;20477;-79
2021/10/12 11:23:49;;;;;;;;;;;;;;;27.33;21.93;97907.53;5082451;28;20028;-80
2021/10/12 11:26:17;;;;;;;4.10;2.88;;;;;;;28.01;21.61;97908.53;5076225;28;20010;-79
2021/10/12 11:28:49;;;;;;;6.68;3.83;;;;;;;27.57;22.14;97907.84;5094460;28;20024;-79
2021/10/12 11:31:16;;;;;;;7.50;3.03;;;;;;;27.14;21.84;97905.81;5096155;28;20080;-79
2021/10/12 11:33:45;;;;;;;3.80;2.63;;;;;;;28.21;21.49;97903.28;5096015;28;20032;-80